x

Gulf Of Maine - 78 Nm East Of Portsmouth, Nh (44005) Wave Buoy

1:50am - Mon 28th Jul 2014 All times are EDT. -4 hours from GMT.

  • Sig Wave height 3.3ft
  • Peak Period 5s
  • Average Period 4s
  • Wind
    11mph, 13mph gusts
  • Sea Temp 65°f
  • 空気 Temp 67°f
  • Sea Pressure 1004.1mb
  • Gulf Of Maine - 78 Nm East Of Portsmouth, Nh
  • Gulf Of Maine - 78 Nm East Of Portsmouth, Nh

More Historic Weather Station data

Upgrade to MSW Pro to gain access to the past 30 days of data for over 8000 Wavebouys and Weather Stations around the globe.

Join Pro

Comparision Forecast

View Surf forecast
   
Mon 07/28 1:50am 3.5ft 5s 4s 11 13 mph 1004.1mb 65f 67f
12:50am 3.5ft 5s 4s 13 16 mph 1004.4mb 65f 67f
Sun 07/27 11:50pm 3.5ft 5s 4s 13 16 mph 1004.8mb 65f 67f
10:50pm 3.5ft 5s 4s 13 18 mph 1005.1mb 65f 68f
9:50pm 3.5ft 6s 5s 16 20 mph 1005.7mb 65f 67f
8:50pm 3.5ft 7s 5s 16 18 mph 1005.6mb 65f 67f
7:50pm 3.5ft 5s 5s 16 18 mph 1005.7mb 65f 67f
6:50pm 3.5ft 5s 5s 13 16 mph 1006mb 65f 66f
5:50pm 4ft 5s 5s 11 13 mph 1007mb 65f 66f
4:50pm 4ft 5s 4s 18 22 mph 1007.2mb 65f 67f
3:50pm 4.5ft 5s 4s 20 22 mph 1007.7mb 65f 67f
2:50pm 3.5ft 4s 4s 20 22 mph 1007.7mb 66f 68f
1:50pm 3.5ft 4s 4s 18 22 mph 1008mb 66f 68f
12:50pm 3ft 4s 4s 20 22 mph 1008.2mb 66f 68f
11:50am 3ft 4s 4s 18 22 mph 1008.6mb 66f 67f
10:50am 3ft 8s 4s 16 18 mph 1009mb 66f 67f
9:50am 3ft 5s 4s 16 18 mph 1009.4mb 66f 67f
8:50am 3.5ft 7s 5s 13 16 mph 1009.9mb 66f 67f
7:50am 3.5ft 7s 5s 11 13 mph 1010mb 66f 67f
6:50am 3.5ft 5s 5s 13 16 mph 1010.3mb 66f 67f
5:50am 4ft 5s 5s 13 16 mph 1010.4mb 66f 67f
4:50am 4ft 8s 4s 16 18 mph 1010.3mb 66f 67f
3:50am 4ft 6s 5s 16 18 mph 1010mb 66f 67f
2:50am 4ft 6s 5s 16 18 mph 1010.2mb 66f 67f
1:50am 4.5ft 6s 5s 16 20 mph 1010.5mb 66f 67f
12:50am 4ft 6s 5s 18 22 mph 1010.6mb 66f 68f
Sat 07/26 11:50pm 4ft 5s 4s 18 20 mph 1011mb 66f 68f
10:50pm 4ft 5s 4s 18 20 mph 1011.1mb 66f 68f
9:50pm 4ft 5s 5s 20 22 mph 1011.2mb 65f 68f
8:50pm 4.5ft 5s 4s 20 22 mph 1011mb 66f 68f
7:50pm 4ft 5s 4s 18 22 mph 1010.9mb 66f 68f
6:50pm 3.5ft 4s 4s 20 25 mph 1011.1mb 66f 69f
5:50pm 3.5ft 4s 4s 20 22 mph 1011.2mb 65f 69f
4:50pm 3ft 7s 4s 18 20 mph 1011.7mb 65f 69f
3:50pm 2.5ft 8s 4s 16 18 mph 1012mb 66f 68f
2:50pm 2.5ft 8s 4s 16
mph
1012.2mb 65f 68f
1:50pm 2.5ft 8s 4s 9 11 mph 1012.9mb 65f 67f
12:50pm 2.5ft 8s 4s 13 16 mph 1013.2mb 66f 67f
11:50am 2.5ft 8s 4s 13 16 mph 1013.3mb 66f 67f
10:50am 2.5ft 9s 4s 11 13 mph 1013.6mb 66f 67f
9:50am 2.5ft 8s 4s 13 16 mph 1013.7mb 66f 67f
8:50am 3ft 8s 5s 11 13 mph 1013.9mb 66f 67f
7:50am 2.5ft 8s 5s 11 13 mph 1013.9mb 66f 67f
6:50am 3ft 9s 5s 9 11 mph 1013.8mb 66f 67f
5:50am 3ft 8s 5s 13 16 mph 1013.6mb 66f 67f
4:50am 3.5ft 8s 5s 11 13 mph 1013.4mb 66f 67f
3:50am 3.5ft 8s 5s 11 13 mph 1013.2mb 66f 68f
2:50am 3.5ft 5s 5s 13 16 mph 1012.9mb 66f 68f
1:50am 3.5ft 4s 4s 16 18 mph 1013mb 66f 67f
12:50am 3ft 4s 4s 16 18 mph 1013.1mb 65f 67f
Fri 07/25 11:50pm 2.5ft 9s 4s 16 18 mph 1013.2mb 64f 67f
10:50pm 2.5ft 9s 4s 16 20 mph 1013mb 64f 67f
9:50pm 2.5ft 9s 4s 13 16 mph 1012.9mb 64f 67f
8:50pm 2.5ft 10s 4s 13 16 mph 1012.5mb 65f 67f
7:50pm 2.5ft 9s 5s 13 16 mph 1012.3mb 66f 67f
6:50pm 2.5ft 9s 5s 13 16 mph 1012.2mb 66f 67f
5:50pm 2.5ft 8s 5s 11 13 mph 1012.1mb 67f 68f
4:50pm 2.5ft 10s 5s 13 16 mph 1012.1mb 67f 68f
3:50pm 2ft 10s 5s 11 13 mph 1012.1mb 67f 67f
2:50pm 1.6ft 9s 5s 13
mph
1012.4mb 67f 67f
1:50pm 2ft 9s 5s 9 11 mph 1012.4mb 67f 67f
12:50pm 1.6ft 9s 5s 9 11 mph 1012.9mb 66f 66f
11:50am 1.6ft 9s 5s 9 11 mph 1013.1mb 66f 66f
10:50am 2ft 9s 5s 9 11 mph 1013.1mb 66f 65f
9:50am 2ft 9s 5s 11
mph
1012.9mb 65f 65f
8:50am 2ft 10s 5s 9 11 mph 1012.9mb 65f 65f
7:50am 2.5ft 8s 5s 9 11 mph 1013mb 63f 65f
6:50am 2.5ft 7s 5s 9 11 mph 1012.6mb 64f 65f
5:50am 2.5ft 8s 4s 13 16 mph 1012.1mb 65f 65f
4:50am 2.5ft 8s 5s 13 18 mph 1011.5mb 65f 65f
3:50am 2.5ft 8s 5s 13 16 mph 1011.3mb 66f 66f
2:50am  -   -   -  13 16 mph 1011.1mb 66f 67f
1:50am  -   -   -  11 13 mph 1010.9mb 66f 66f
12:50am 1.6ft 8s 6s 11
mph
1011.3mb 66f 66f
Thu 07/24 11:50pm 2ft 8s 6s 7 9 mph 1011mb 66f 66f
10:50pm 1.6ft 9s 5s 4
mph
1010.7mb 66f 65f
9:50pm 1.6ft 11s 5s 7
mph
1010.5mb 65f 64f
8:50pm 1.6ft 9s 5s 4 7 mph 1010mb 66f 64f
7:50pm 1.6ft 7s 5s 4
mph
1009.4mb 66f 64f
6:50pm 1.6ft 7s 5s 7
mph
1009.1mb 66f 64f
5:50pm 2ft 8s 4s 7 9 mph 1009.2mb 66f 64f
4:50pm 2.5ft 8s 4s 7
mph
1009.4mb 66f 63f
3:50pm 2.5ft 4s 4s 13 16 mph 1009.2mb 66f 63f
2:50pm 3ft 4s 4s 16 18 mph 1009.3mb 66f 63f
1:50pm 3.5ft 5s 4s 13 16 mph 1009.5mb 66f 62f
12:50pm 3.5ft 4s 4s 18 20 mph 1009mb 66f 63f
11:50am 3.5ft 5s 4s 20 22 mph 1008.5mb 66f 64f
10:50am 3.5ft 5s 4s 22 25 mph 1008.1mb 66f 64f
9:50am 2.5ft 5s 4s 25 31 mph 1007.1mb 67f 65f
8:50am 2.5ft 5s 5s 16 18 mph 1007.1mb 67f 66f
7:50am 2.5ft 5s 5s 2 4 mph 1007.3mb 67f 68f
6:50am 2.5ft 6s 5s 2 4 mph 1007.3mb 67f 68f